Time;durP1;ratioP1;P1;durP2;ratioP2;P2;SDS_P1;SDS_P2;PMS_P1;PMS_P2;Temp;Humidity;BMP_temperature;BMP_pressure;BME280_temperature;BME280_humidity;BME280_pressure;Samples;Min_cycle;Max_cycle;Signal;HPM_P1;HPM_P2
2022/11/30 00:01:30;;;;;;;31.53;17.67;;;7.00;99.90;;;10.37;60.41;97864.16;4983229;28;20222;-59
2022/11/30 00:03:58;;;;;;;40.03;21.60;;;6.90;99.90;;;10.35;60.35;97858.16;4983688;28;20049;-60
2022/11/30 00:06:25;;;;;;;51.60;26.77;;;6.90;99.90;;;10.39;60.09;97863.03;4983546;28;20249;-60
2022/11/30 00:08:55;;;;;;;37.60;21.77;;;7.00;99.90;;;10.43;60.35;97869.72;4984392;28;20222;-60
2022/11/30 00:11:26;;;;;;;39.63;21.63;;;7.10;99.90;;;10.44;60.23;97860.72;4984416;28;20281;-60
2022/11/30 00:13:54;;;;;;;32.67;20.63;;;7.00;99.90;;;10.43;60.19;97859.06;4982859;28;20235;-60
2022/11/30 00:16:21;;;;;;;36.90;19.07;;;7.00;99.90;;;10.41;60.28;97852.19;4983058;28;20054;-60
2022/11/30 00:18:50;;;;;;;46.33;22.90;;;7.00;99.90;;;10.42;60.18;97859.22;4982918;28;20076;-60
2022/11/30 00:21:18;;;;;;;41.23;22.27;;;7.00;99.90;;;10.36;60.08;97852.69;4983511;28;20051;-60
2022/11/30 00:23:47;;;;;;;33.77;19.00;;;6.90;99.90;;;10.38;60.49;97848.03;4983679;28;20046;-60
2022/11/30 00:26:18;;;;;;;35.70;19.30;;;7.00;99.90;;;10.37;60.17;97851.69;4982221;28;20061;-60
2022/11/30 00:28:46;;;;;;;51.10;26.80;;;7.00;99.90;;;10.38;60.41;97853.34;4984072;28;20197;-60
2022/11/30 00:31:17;;;;;;;53.40;26.30;;;7.00;99.90;;;10.43;60.68;97855.56;4982835;28;20240;-60
2022/11/30 00:33:45;;;;;;;51.87;27.67;;;7.10;99.90;;;10.46;60.31;97857.91;4982591;28;20060;-60
2022/11/30 00:36:16;;;;;;;51.03;25.87;;;7.10;99.90;;;10.48;60.39;97852.44;4983187;28;20073;-60
2022/11/30 00:38:45;;;;;;;54.47;28.53;;;7.20;99.90;;;10.52;60.11;97854.63;4984117;28;20061;-60
2022/11/30 00:41:13;;;;;;;51.90;27.83;;;7.30;99.90;;;10.56;60.29;97855.16;4982355;28;20059;-60
2022/11/30 00:43:41;;;;;;;50.57;30.13;;;7.30;99.90;;;10.58;60.19;97845.19;4982297;28;20241;-60
2022/11/30 00:46:10;;;;;;;44.33;25.97;;;7.30;99.90;;;10.60;60.47;97860.03;4983979;28;20057;-60
2022/11/30 00:48:39;;;;;;;39.77;24.67;;;7.40;99.90;;;10.64;60.05;97856.06;4984226;28;20073;-60
2022/11/30 00:51:09;;;;;;;47.07;25.13;;;7.40;99.90;;;10.67;60.28;97854.91;4982432;28;20055;-60
2022/11/30 00:53:38;;;;;;;44.03;26.17;;;7.40;99.90;;;10.68;60.35;97851.22;4983284;28;20047;-60
2022/11/30 00:56:07;;;;;;;40.47;21.30;;;7.40;99.90;;;10.68;59.70;97858.38;4982087;28;20043;-60
2022/11/30 00:58:35;;;;;;;40.13;23.27;;;7.40;99.90;;;10.68;59.92;97856.56;4982602;28;20046;-60
2022/11/30 01:01:04;;;;;;;38.00;22.67;;;7.40;99.90;;;10.67;60.09;97862.06;4982379;28;20047;-60
2022/11/30 01:03:32;;;;;;;39.93;22.00;;;7.40;99.90;;;10.67;59.73;97854.91;4982167;28;20046;-60
2022/11/30 01:06:05;;;;;;;37.77;21.77;;;7.40;99.90;;;10.67;59.98;97862.88;4982052;28;20050;-60
2022/11/30 01:08:34;;;;;;;36.15;21.50;;;7.40;99.90;;;10.68;59.91;97855.72;4982287;28;20050;-60
2022/11/30 01:11:16;;;;;;;34.43;18.97;;;7.40;99.90;;;10.66;59.62;97858.53;4983355;28;20049;-60
2022/11/30 01:13:44;;;;;;;35.63;19.70;;;7.40;99.90;;;10.65;59.80;97859.53;4981313;28;20067;-60
2022/11/30 01:16:19;;;;;;;33.23;18.93;;;7.40;99.90;;;10.65;60.04;97859.53;4983146;28;20348;-60
2022/11/30 01:18:47;;;;;;;36.03;18.77;;;7.30;99.90;;;10.67;59.65;97859.41;4982333;28;20275;-60
2022/11/30 01:21:20;;;;;;;33.97;18.67;;;7.30;99.90;;;10.68;59.36;97861.88;4983506;28;20057;-60
2022/11/30 01:23:48;;;;;;;33.93;18.90;;;7.30;99.90;;;10.69;59.42;97868.06;4980844;28;20047;-60
2022/11/30 01:26:18;;;;;;;35.40;18.10;;;7.20;99.90;;;10.67;59.60;97860.22;4980877;28;20166;-60
2022/11/30 01:28:54;;;;;;;34.27;19.20;;;7.20;99.90;;;10.66;59.46;97869.19;4982243;28;20049;-60
2022/11/30 01:31:23;;;;;;;34.70;19.97;;;7.30;99.90;;;10.67;59.55;97864.72;4981881;28;20050;-60
2022/11/30 01:33:54;;;;;;;34.87;17.97;;;7.30;99.90;;;10.63;59.60;97870.34;4982935;28;20050;-60
2022/11/30 01:36:25;;;;;;;32.80;19.23;;;7.30;99.90;;;10.63;59.63;97866.84;4983039;28;20050;-60
2022/11/30 01:38:56;;;;;;;32.43;18.80;;;7.30;99.90;;;10.67;59.13;97872.72;4982093;28;20069;-60
2022/11/30 01:41:30;;;;;;;34.67;19.27;;;7.30;99.90;;;10.68;59.35;97877.03;4981817;28;20061;-60
2022/11/30 01:44:04;;;;;;;32.97;18.93;;;7.30;99.90;;;10.67;59.39;97875.38;4983048;28;20043;-60
2022/11/30 01:46:53;;;;;;;32.20;18.83;;;7.30;99.90;;;10.67;59.55;97878.03;4982855;28;20395;-60
2022/11/30 01:49:30;;;;;;;32.10;18.27;;;7.20;99.90;;;10.68;59.32;97875.19;4983156;28;20241;-59
2022/11/30 01:52:10;;;;;;;33.30;18.17;;;7.20;99.90;;;10.68;59.72;97883.19;4982940;28;20043;-60
2022/11/30 01:54:49;;;;;;;33.13;18.67;;;7.20;99.90;;;10.67;59.49;97872.72;4982587;28;20057;-60
2022/11/30 01:57:28;;;;;;;34.63;19.37;;;7.30;99.90;;;10.66;59.69;97877.19;4981109;28;20051;-60
2022/11/30 02:00:00;;;;;;;31.33;17.63;;;7.20;99.90;;;10.66;59.44;97879.84;4981936;28;20057;-60
2022/11/30 02:03:07;;;;;;;32.07;18.50;;;7.20;99.90;;;10.60;59.52;97883.13;4982722;28;20053;-60
2022/11/30 02:05:38;;;;;;;32.13;18.30;;;7.20;99.90;;;10.60;59.08;97878.66;4981357;28;20378;-60
2022/11/30 02:08:09;;;;;;;29.33;17.90;;;7.20;99.90;;;10.58;59.07;97880.63;4982612;28;20232;-60
2022/11/30 02:10:46;;;;;;;33.80;18.37;;;7.10;99.90;;;10.57;59.45;97875.47;4981817;28;20379;-60
2022/11/30 02:13:34;;;;;;;27.73;16.67;;;7.20;99.90;;;10.55;59.17;97880.13;4981657;28;20057;-59
2022/11/30 02:16:41;;;;;;;28.73;16.40;;;7.20;99.90;;;10.53;59.63;97882.09;4982718;28;20055;-60
2022/11/30 02:19:45;;;;;;;30.20;18.00;;;7.20;99.90;;;10.51;59.89;97879.59;4981550;28;20047;-60
2022/11/30 02:22:47;;;;;;;26.60;16.40;;;7.20;99.90;;;10.50;59.30;97883.22;4982809;28;20149;-60
2022/11/30 02:25:24;;;;;;;27.80;15.93;;;7.20;99.90;;;10.49;59.33;97883.38;4985378;28;20069;-60
2022/11/30 02:28:09;;;;;;;30.10;16.23;;;7.10;99.90;;;10.46;59.63;97884.53;4985752;28;20055;-60
2022/11/30 02:30:45;;;;;;;29.33;17.53;;;7.10;99.90;;;10.48;59.37;97882.53;4985436;28;20371;-60
2022/11/30 02:33:18;;;;;;;34.00;18.10;;;7.10;99.90;;;10.49;58.94;97878.03;4985126;28;20051;-60
2022/11/30 02:35:52;;;;;;;33.25;16.83;;;7.00;99.90;;;10.49;59.23;97880.72;4984749;28;20077;-60
2022/11/30 02:38:25;;;;;;;32.93;18.40;;;7.00;99.90;;;10.49;59.28;97880.72;4984844;28;20050;-60
2022/11/30 02:40:53;;;;;;;28.27;15.93;;;7.00;99.90;;;10.47;58.79;97883.56;4984989;28;20047;-60
2022/11/30 02:43:24;;;;;;;27.80;16.57;;;7.00;99.90;;;10.42;59.17;97885.81;4986399;28;20260;-60
2022/11/30 02:46:01;;;;;;;31.50;18.53;;;7.00;99.90;;;10.41;59.60;97894.78;4985570;28;20055;-60
2022/11/30 02:48:52;;;;;;;31.47;18.20;;;7.00;99.90;;;10.39;59.22;97889.66;4984750;28;20118;-60
2022/11/30 02:51:25;;;;;;;31.03;17.40;;;7.00;99.90;;;10.38;58.97;97884.47;4984689;28;20051;-60
2022/11/30 02:53:53;;;;;;;29.83;17.87;;;6.90;99.90;;;10.35;59.24;97887.44;4983913;28;20055;-60
2022/11/30 02:56:22;;;;;;;31.87;17.47;;;6.90;99.90;;;10.33;59.71;97886.75;4986081;28;20050;-60
2022/11/30 02:58:50;;;;;;;33.60;18.27;;;6.90;99.90;;;10.33;59.55;97881.41;4984533;28;20057;-60
2022/11/30 03:01:18;;;;;;;27.97;16.43;;;6.90;99.90;;;10.33;59.32;97884.94;4985697;28;20305;-60
2022/11/30 03:03:46;;;;;;;38.13;18.63;;;6.90;99.90;;;10.32;59.58;97885.91;4985003;28;20050;-60
2022/11/30 03:06:14;;;;;;;31.77;17.70;;;6.90;99.90;;;10.29;59.50;97885.34;4984931;28;20245;-60
2022/11/30 03:08:42;;;;;;;29.77;17.53;;;6.80;99.90;;;10.28;59.25;97886.34;4984442;28;20069;-60
2022/11/30 03:11:10;;;;;;;30.83;16.17;;;6.80;99.90;;;10.27;59.81;97884.66;4985705;28;20047;-60
2022/11/30 03:13:37;;;;;;;31.17;17.47;;;6.80;99.90;;;10.28;59.47;97891.69;4984972;28;20047;-60
2022/11/30 03:16:11;;;;;;;31.37;16.80;;;6.90;99.90;;;10.28;59.92;97889.84;4984237;28;20090;-60
2022/11/30 03:18:39;;;;;;;28.02;17.70;;;6.90;99.90;;;10.29;59.41;97893.34;4985868;28;20050;-60
2022/11/30 03:21:10;;;;;;;32.13;17.70;;;6.80;99.90;;;10.27;59.34;97888.16;4984159;28;20218;-60
2022/11/30 03:23:38;;;;;;;29.70;16.37;;;6.80;99.90;;;10.27;59.59;97892.66;4985127;28;20054;-60
2022/11/30 03:26:08;;;;;;;26.97;16.07;;;6.80;99.90;;;10.25;59.57;97892.81;4983980;28;20050;-59
2022/11/30 03:28:36;;;;;;;31.73;18.27;;;6.80;99.90;;;10.21;59.54;97891.44;4985241;28;20055;-60
2022/11/30 03:31:05;;;;;;;31.60;18.27;;;6.70;99.90;;;10.20;59.17;97892.44;4984188;28;20256;-60
2022/11/30 03:33:33;;;;;;;27.27;16.00;;;6.70;99.90;;;10.20;59.68;97901.25;4984643;28;20046;-60
2022/11/30 03:36:04;;;;;;;27.73;16.50;;;6.70;99.90;;;10.19;59.72;97899.56;4983460;28;20057;-60
2022/11/30 03:38:33;;;;;;;29.37;15.93;;;6.70;99.90;;;10.22;59.37;97901.09;4984026;28;20043;-60
2022/11/30 03:41:15;;;;;;;33.33;17.57;;;6.80;99.90;;;10.23;59.73;97895.59;4984136;28;20061;-60
2022/11/30 03:43:44;;;;;;;30.67;17.37;;;6.80;99.90;;;10.24;59.78;97894.63;4984452;28;20051;-60
2022/11/30 03:46:13;;;;;;;26.30;15.87;;;6.80;99.90;;;10.27;59.73;97901.47;4983865;28;20046;-60
2022/11/30 03:48:44;;;;;;;32.90;18.03;;;6.90;99.90;;;10.27;59.83;97905.97;4983874;28;20121;-60
2022/11/30 03:51:13;;;;;;;24.47;16.10;;;6.90;99.90;;;10.27;59.44;97895.31;4984786;28;20053;-60
2022/11/30 03:53:41;;;;;;;27.53;14.67;;;6.90;99.90;;;10.29;59.38;97896.81;4983009;28;20061;-60
2022/11/30 03:56:10;;;;;;;26.87;15.93;;;6.90;99.90;;;10.32;59.25;97901.88;4984535;28;20057;-60
2022/11/30 03:58:38;;;;;;;28.77;16.40;;;6.90;99.90;;;10.32;59.33;97901.88;4983630;28;20115;-60
2022/11/30 04:01:15;;;;;;;29.37;16.30;;;6.90;99.90;;;10.33;59.17;97897.38;4983388;28;20046;-59
2022/11/30 04:03:44;;;;;;;29.77;14.90;;;7.00;99.90;;;10.35;59.42;97904.25;4984253;28;20051;-60
2022/11/30 04:06:12;;;;;;;31.03;17.57;;;7.00;99.90;;;10.36;59.56;97903.25;4983099;28;20051;-60
2022/11/30 04:08:41;;;;;;;29.90;16.67;;;7.00;99.90;;;10.37;59.74;97904.06;4984279;28;20049;-60
2022/11/30 04:11:09;;;;;;;27.07;15.83;;;7.00;99.90;;;10.37;59.15;97902.28;4983289;28;20386;-59
2022/11/30 04:13:39;;;;;;;26.37;15.80;;;7.00;99.90;;;10.37;59.38;97896.94;4982699;28;20043;-60
2022/11/30 04:16:08;;;;;;;30.17;17.10;;;7.00;99.90;;;10.36;59.31;97894.44;4982922;28;20054;-60
2022/11/30 04:18:37;;;;;;;29.70;16.30;;;6.90;99.90;;;10.35;59.43;97901.59;4984195;28;20240;-60
2022/11/30 04:21:06;;;;;;;29.10;16.03;;;6.90;99.90;;;10.36;59.10;97905.06;4983617;28;20247;-60
2022/11/30 04:23:38;;;;;;;27.70;16.03;;;7.00;99.90;;;10.35;59.35;97901.59;4983796;28;20047;-60
2022/11/30 04:26:13;;;;;;;28.03;15.33;;;7.00;99.90;;;10.35;59.73;97898.94;4980935;28;20050;-60
2022/11/30 04:28:42;;;;;;;25.80;15.07;;;7.00;99.90;;;10.39;59.28;97904.75;4983051;28;20043;-59
2022/11/30 04:31:10;;;;;;;25.53;15.30;;;7.00;99.90;;;10.39;59.40;97900.28;4983473;28;20250;-60
2022/11/30 04:33:38;;;;;;;28.70;16.50;;;7.00;99.90;;;10.40;59.45;97901.13;4983794;28;20052;-60
2022/11/30 04:36:14;;;;;;;25.70;16.17;;;7.00;99.90;;;10.39;59.48;97894.97;4983857;28;20218;-60
2022/11/30 04:38:41;;;;;;;25.10;13.87;;;7.10;99.90;;;10.40;59.17;97901.94;4983810;28;20047;-60
2022/11/30 04:41:09;;;;;;;27.23;16.37;;;7.10;99.90;;;10.39;59.64;97902.94;4982811;28;20053;-59
2022/11/30 04:43:37;;;;;;;25.20;14.20;;;7.10;99.90;;;10.40;59.50;97906.44;4982395;28;20050;-60
2022/11/30 04:46:06;;;;;;;23.10;14.67;;;7.10;99.90;;;10.36;58.99;97903.25;4983630;28;20399;-60
2022/11/30 04:48:34;;;;;;;21.17;14.43;;;7.00;99.90;;;10.32;59.43;97901.88;4981848;28;20061;-60
2022/11/30 04:51:07;;;;;;;26.63;15.10;;;6.90;99.90;;;10.30;59.12;97909.19;4982726;28;20053;-60
2022/11/30 04:53:37;;;;;;;27.40;15.68;;;6.80;99.90;;;10.24;58.97;97901.78;4983237;28;20049;-60
2022/11/30 04:56:10;;;;;;;25.90;14.47;;;6.70;99.90;;;10.23;59.38;97903.59;4982460;28;20050;-60
2022/11/30 04:58:38;;;;;;;29.30;14.57;;;6.70;99.90;;;10.24;59.01;97904.44;4982479;28;20051;-60
2022/11/30 05:01:07;;;;;;;30.40;16.93;;;6.70;99.90;;;10.24;59.48;97904.44;4982333;28;20051;-59
2022/11/30 05:03:35;;;;;;;26.93;17.30;;;6.70;99.90;;;10.19;59.35;97906.72;4983132;28;20253;-59
2022/11/30 05:06:03;;;;;;;25.43;15.47;;;6.70;99.90;;;10.17;59.52;97906.03;4983279;28;20218;-59
2022/11/30 05:08:31;;;;;;;31.47;16.30;;;6.70;99.90;;;10.15;59.39;97906.19;4983084;28;20046;-60
2022/11/30 05:10:59;;;;;;;30.23;17.03;;;6.80;99.90;;;10.17;59.38;97909.53;4983527;28;20057;-59
2022/11/30 05:13:27;;;;;;;25.70;15.57;;;6.80;99.90;;;10.19;59.67;97904.06;4983223;28;20043;-59
2022/11/30 05:15:54;;;;;;;28.67;15.67;;;6.80;99.90;;;10.17;59.48;97908.69;4982932;28;20046;-59
2022/11/30 05:18:22;;;;;;;27.07;16.63;;;6.70;99.90;;;10.18;59.41;97907.72;4981897;28;20051;-59
2022/11/30 05:20:52;;;;;;;26.33;14.20;;;6.70;99.90;;;10.18;59.74;97908.56;4983272;28;20050;-59
2022/11/30 05:23:20;;;;;;;23.53;14.43;;;6.80;99.90;;;10.21;59.40;97918.03;4982358;28;20057;-59
2022/11/30 05:25:48;;;;;;;27.20;15.13;;;6.80;99.90;;;10.24;59.37;97915.91;4982633;28;20046;-59
2022/11/30 05:28:16;;;;;;;25.60;14.30;;;6.80;99.90;;;10.26;59.90;97913.13;4983156;28;20045;-60
2022/11/30 05:30:44;;;;;;;24.27;14.77;;;6.80;99.90;;;10.29;59.63;97917.28;4982470;28;20050;-59
2022/11/30 05:33:12;;;;;;;24.63;14.80;;;6.80;99.90;;;10.28;59.49;97915.63;4981791;28;20053;-59
2022/11/30 05:35:40;;;;;;;23.83;14.43;;;6.90;99.90;;;10.21;59.47;97926.03;4982683;28;20049;-59
2022/11/30 05:38:08;;;;;;;22.43;13.60;;;6.80;99.90;;;10.22;59.27;97930.38;4981998;28;20057;-59
2022/11/30 05:40:36;;;;;;;27.37;15.00;;;6.80;99.90;;;10.22;59.68;97928.53;4982347;28;20047;-59
2022/11/30 05:43:04;;;;;;;26.67;15.17;;;6.80;99.90;;;10.22;59.39;97933.88;4982879;28;20047;-60
2022/11/30 05:45:32;;;;;;;26.73;14.30;;;6.80;99.90;;;10.21;59.58;97928.69;4981474;28;20245;-60
2022/11/30 05:48:00;;;;;;;24.10;14.10;;;6.80;99.90;;;10.19;59.80;97938.66;4981864;28;20371;-59
2022/11/30 05:50:28;;;;;;;24.53;14.80;;;6.70;99.90;;;10.17;59.68;97924.66;4981998;28;20055;-59
2022/11/30 05:52:56;;;;;;;27.77;15.67;;;6.70;99.90;;;10.10;59.33;97929.75;4982783;28;20258;-57
2022/11/30 05:55:24;;;;;;;25.40;15.20;;;6.60;99.90;;;10.05;59.72;97934.69;4982787;28;20046;-56
2022/11/30 05:57:53;;;;;;;24.63;15.90;;;6.60;99.90;;;10.03;59.39;97926.84;4981730;28;20053;-56
2022/11/30 06:00:21;;;;;;;25.43;15.13;;;6.60;99.90;;;10.07;59.83;97931.88;4986382;28;20061;-55
2022/11/30 06:02:56;;;;;;;28.37;16.87;;;6.60;99.90;;;10.07;59.78;97935.38;4985820;28;20077;-56
2022/11/30 06:05:25;;;;;;;27.33;14.63;;;6.60;99.90;;;10.04;59.92;97936.53;4985316;28;20054;-58
2022/11/30 06:07:54;;;;;;;26.80;15.10;;;6.60;99.90;;;10.04;59.93;97927.69;4986408;28;20114;-57
2022/11/30 06:10:24;;;;;;;26.27;15.03;;;6.60;99.90;;;10.00;59.97;97934.28;4986278;28;20047;-57
2022/11/30 06:12:52;;;;;;;28.60;14.63;;;6.60;99.90;;;9.96;59.94;97930.28;4985525;28;20054;-58
2022/11/30 06:15:20;;;;;;;28.50;15.53;;;6.50;99.90;;;9.96;59.84;97927.59;4989222;28;20045;-58
2022/11/30 06:17:48;;;;;;;34.17;18.97;;;6.60;99.90;;;9.94;59.86;97933.06;5004419;28;20256;-59
2022/11/30 06:20:16;;;;;;;26.60;16.13;;;6.60;99.90;;;9.98;60.22;97922.97;5020090;28;20054;-60
2022/11/30 06:22:45;;;;;;;23.30;13.43;;;6.60;99.90;;;9.99;60.04;97930.81;5005833;28;20266;-57
2022/11/30 06:25:13;;;;;;;21.43;13.57;;;6.60;99.90;;;9.99;59.83;97922.81;5005110;28;20341;-56
2022/11/30 06:27:42;;;;;;;21.57;13.27;;;6.60;99.90;;;10.00;59.70;97924.50;5005760;28;20046;-55
2022/11/30 06:30:11;;;;;;;27.57;15.60;;;6.60;99.90;;;10.03;60.12;97926.84;5005498;28;20046;-52
2022/11/30 06:32:39;;;;;;;28.47;17.10;;;6.60;99.90;;;10.04;59.63;97935.66;5004365;28;20056;-56
2022/11/30 06:35:07;;;;;;;30.10;16.53;;;6.60;99.90;;;10.05;59.98;97929.38;5004857;28;20038;-54
2022/11/30 06:37:35;;;;;;;36.33;21.40;;;6.60;99.90;;;10.05;59.97;97926.72;5004493;28;20056;-53
2022/11/30 06:40:04;;;;;;;23.77;13.50;;;6.70;99.90;;;10.02;59.67;97924.34;5003909;28;20221;-54
2022/11/30 06:42:35;;;;;;;31.03;18.33;;;6.70;99.90;;;10.05;59.75;97926.72;5005847;28;20050;-53
2022/11/30 06:45:05;;;;;;;34.60;21.47;;;6.70;99.90;;;10.06;59.86;97917.72;5004924;28;20255;-59
2022/11/30 06:47:34;;;;;;;25.87;15.30;;;6.70;99.90;;;10.10;59.69;97926.25;5019431;28;20065;-58
2022/11/30 06:50:02;;;;;;;26.37;16.93;;;6.70;99.90;;;10.10;60.02;97918.25;5004570;28;20052;-57
2022/11/30 06:52:33;;;;;;;31.60;19.03;;;6.70;99.90;;;10.12;59.87;97926.94;5004135;28;20222;-57
2022/11/30 06:55:01;;;;;;;28.70;15.27;;;6.70;99.90;;;10.13;59.83;97928.63;5004860;28;20043;-59
2022/11/30 06:57:30;;;;;;;30.00;18.10;;;6.80;99.90;;;10.16;59.69;97925.66;5004023;28;20042;-56
2022/11/30 06:59:58;;;;;;;29.97;17.50;;;6.80;99.90;;;10.19;59.65;97926.16;5005689;28;20054;-56
2022/11/30 07:02:36;;;;;;;31.50;17.50;;;6.80;99.90;;;10.24;59.61;97926.56;4984479;28;20257;-55
2022/11/30 07:05:04;;;;;;;25.70;17.17;;;6.80;99.90;;;10.27;59.98;97929.91;4985618;28;20053;-56
2022/11/30 07:07:33;;;;;;;30.37;19.33;;;6.90;99.90;;;10.30;60.02;97935.81;4985392;28;20049;-55
2022/11/30 07:10:01;;;;;;;32.30;19.23;;;6.90;99.90;;;10.33;59.85;97934.66;4991673;28;20042;-57
2022/11/30 07:12:33;;;;;;;34.37;19.90;;;6.90;99.90;;;10.36;59.75;97934.34;5002091;28;20046;-55
2022/11/30 07:15:00;;;;;;;29.93;18.93;;;6.90;99.90;;;10.36;59.41;97932.53;5002630;28;20042;-55
2022/11/30 07:17:28;;;;;;;24.73;15.77;;;6.90;99.90;;;10.38;59.91;97937.69;5000987;28;20253;-56
2022/11/30 07:19:56;;;;;;;29.00;18.60;;;7.00;99.90;;;10.38;59.55;97941.19;5004204;28;20375;-56
2022/11/30 07:22:24;;;;;;;30.80;18.93;;;7.00;99.90;;;10.38;59.68;97941.19;5004758;28;20060;-58
2022/11/30 07:27:38;;;;;;;21.20;14.40;;;7.00;99.90;;;10.37;59.65;97941.34;5002469;28;20268;-58
2022/11/30 07:30:07;;;;;;;36.70;20.67;;;7.00;99.90;;;10.29;59.66;97941.22;5004448;28;20046;-60
2022/11/30 07:32:35;;;;;;;26.30;15.60;;;7.10;99.90;;;10.25;59.75;97943.34;5003593;28;20046;-58
2022/11/30 07:35:03;;;;;;;31.60;20.27;;;7.00;99.90;;;10.24;60.02;97944.38;5003869;28;20046;-57
2022/11/30 07:37:30;;;;;;;24.47;15.80;;;7.00;99.90;;;10.29;59.58;97943.91;5003581;28;20273;-58
2022/11/30 07:39:58;;;;;;;21.53;13.23;;;7.00;99.90;;;10.29;59.47;97942.06;5003381;28;20056;-58
2022/11/30 07:42:26;;;;;;;25.10;15.90;;;7.00;99.90;;;10.32;59.39;97941.81;5004183;28;20244;-59
2022/11/30 07:44:54;;;;;;;27.03;17.10;;;7.00;99.90;;;10.34;59.76;97946.97;5003890;28;20252;-59
2022/11/30 07:47:25;;;;;;;19.87;14.13;;;7.00;99.90;;;10.37;59.31;97950.19;5003166;28;20240;-58
2022/11/30 07:49:53;;;;;;;24.80;15.07;;;7.00;99.90;;;10.43;59.47;97948.72;5004229;28;20236;-59
2022/11/30 07:52:21;;;;;;;23.83;14.30;;;7.00;99.90;;;10.46;59.61;97951.06;5003160;28;20042;-59
2022/11/30 07:54:49;;;;;;;21.70;12.73;;;7.10;99.90;;;10.46;59.53;97952.91;5002678;28;20042;-58
2022/11/30 07:57:17;;;;;;;20.17;12.57;;;7.10;99.90;;;10.47;59.53;97947.44;5002667;28;20054;-58
2022/11/30 07:59:45;;;;;;;18.47;11.33;;;7.10;99.90;;;10.47;59.71;97955.41;5003723;28;20243;-58
2022/11/30 08:02:13;;;;;;;19.53;11.70;;;7.00;99.90;;;10.48;59.32;97950.94;5004116;28;20050;-58
2022/11/30 08:04:43;;;;;;;18.87;12.03;;;7.00;99.90;;;10.49;59.48;97957.91;5003652;28;20048;-58
2022/11/30 08:07:13;;;;;;;24.53;15.23;;;7.00;99.90;;;10.49;59.55;97961.44;5018645;28;20054;-58
2022/11/30 08:09:41;;;;;;;20.50;12.13;;;7.00;99.90;;;10.52;59.56;97960.28;5004133;28;20050;-58
2022/11/30 08:12:09;;;;;;;19.90;12.47;;;7.00;99.90;;;10.51;59.25;97961.28;5003872;28;20050;-58
2022/11/30 08:14:37;;;;;;;18.40;12.23;;;7.10;99.90;;;10.51;59.08;97955.94;5002249;28;20050;-58
2022/11/30 08:17:24;;;;;;;20.10;11.67;;;7.00;99.90;;;10.52;59.59;97968.25;5003621;28;20060;-58
2022/11/30 08:20:42;;;;;;;18.97;10.67;;;7.00;99.90;;;10.47;59.80;97970.53;5003703;28;20249;-58
2022/11/30 08:23:16;;;;;;;20.30;12.27;;;7.00;99.90;;;10.52;59.34;97965.59;5003044;28;20153;-57
2022/11/30 08:25:44;;;;;;;20.60;12.37;;;7.00;99.90;;;10.51;59.73;97971.94;5003106;28;20046;-58
2022/11/30 08:28:12;;;;;;;18.33;11.23;;;7.00;99.90;;;10.52;59.33;97963.75;4985943;28;20056;-58
2022/11/30 08:30:39;;;;;;;17.97;12.13;;;7.00;99.90;;;10.56;59.24;97974.94;5004361;28;20252;-58
2022/11/30 08:33:07;;;;;;;25.30;12.93;;;7.10;99.90;;;10.58;59.53;97972.97;5002074;28;20053;-58
2022/11/30 08:35:35;;;;;;;21.30;12.87;;;7.10;99.90;;;10.61;59.67;97980.66;5003509;28;20362;-58
2022/11/30 08:38:03;;;;;;;20.20;11.80;;;7.10;99.90;;;10.59;59.69;97977.31;5003244;28;20042;-59
2022/11/30 08:40:31;;;;;;;20.10;12.20;;;7.10;99.90;;;10.62;59.79;97979.66;5001181;28;20053;-58
2022/11/30 08:42:58;;;;;;;23.27;11.80;;;7.20;99.90;;;10.63;59.26;97981.34;5003106;28;20049;-58
2022/11/30 08:45:26;;;;;;;20.20;12.00;;;7.20;99.90;;;10.62;59.18;97982.31;5002711;28;20253;-58
2022/11/30 08:47:54;;;;;;;21.47;11.47;;;7.20;99.90;;;10.63;59.73;97978.69;5003044;28;20157;-56
2022/11/30 08:50:22;;;;;;;21.93;13.17;;;7.20;99.90;;;10.66;59.76;97977.53;5003140;28;20057;-57
2022/11/30 08:52:53;;;;;;;17.63;11.10;;;7.20;99.90;;;10.69;59.73;97979.91;4997754;28;20060;-59
2022/11/30 08:55:21;;;;;;;19.63;13.43;;;7.30;99.90;;;10.73;59.22;97976.75;4996949;28;20050;-58
2022/11/30 08:57:49;;;;;;;17.70;10.97;;;7.30;99.90;;;10.78;59.23;97989.63;4999791;28;20050;-58
2022/11/30 09:00:18;;;;;;;20.67;11.97;;;7.30;99.90;;;10.80;59.42;97987.66;4999464;28;20060;-58
2022/11/30 09:02:46;;;;;;;20.40;12.07;;;7.40;99.90;;;10.83;59.25;97995.31;4995564;28;20054;-57
2022/11/30 09:05:14;;;;;;;20.93;12.67;;;7.40;99.90;;;10.83;59.08;97996.13;4996143;28;20050;-57
2022/11/30 09:07:43;;;;;;;17.83;11.47;;;7.40;99.90;;;10.85;59.61;97996.00;4996150;28;20053;-58
2022/11/30 09:10:11;;;;;;;18.20;12.77;;;7.50;99.90;;;10.86;58.93;97995.00;4996675;28;20044;-58
2022/11/30 09:12:40;;;;;;;20.57;11.97;;;7.50;99.90;;;10.86;58.89;97999.47;4997360;28;20048;-58
2022/11/30 09:15:09;;;;;;;19.13;12.97;;;7.50;99.90;;;10.86;59.07;98003.00;4995905;28;20352;-58
2022/11/30 09:17:36;;;;;;;21.80;13.30;;;7.50;99.90;;;10.89;59.35;98007.19;4995402;28;20042;-56
2022/11/30 09:20:06;;;;;;;22.07;13.77;;;7.50;99.90;;;10.90;59.07;98000.88;4996080;28;20050;-57
2022/11/30 09:22:34;;;;;;;26.30;13.80;;;7.50;99.90;;;10.92;59.07;98010.38;4995402;28;20226;-58
2022/11/30 09:25:02;;;;;;;23.27;12.93;;;7.50;99.90;;;10.90;59.08;98009.69;4995091;28;20066;-58
2022/11/30 09:27:33;;;;;;;22.20;12.00;;;7.40;99.90;;;10.92;59.10;98005.03;4993566;28;20061;-57
2022/11/30 09:30:02;;;;;;;23.20;13.93;;;7.50;99.90;;;10.92;59.15;98010.38;4994748;28;20256;-58
2022/11/30 09:32:30;;;;;;;20.27;12.30;;;7.50;99.90;;;10.97;59.17;98015.22;5013566;28;20046;-59
2022/11/30 09:34:57;;;;;;;24.67;13.20;;;7.60;99.90;;;11.01;58.96;98013.94;4994127;28;20061;-58
2022/11/30 09:37:25;;;;;;;20.33;13.37;;;7.60;99.90;;;11.06;58.94;98016.13;4996933;28;20054;-58
2022/11/30 09:39:53;;;;;;;21.57;13.00;;;7.60;99.90;;;11.04;59.09;98000.31;4996610;28;20260;-58
2022/11/30 09:42:38;;;;;;;20.20;12.20;;;7.60;99.90;;;11.07;59.15;98005.34;4995842;28;20054;-58
2022/11/30 09:45:18;;;;;;;21.80;12.33;;;7.70;99.90;;;11.08;58.70;98008.81;4998046;28;20064;-58
2022/11/30 09:48:12;;;;;;;21.17;12.83;;;7.60;99.90;;;11.08;58.78;98009.66;4997014;28;20056;-58
2022/11/30 09:50:43;;;;;;;17.95;11.45;;;7.60;99.90;;;11.07;58.70;98005.34;4996880;28;20057;-57
2022/11/30 09:53:18;;;;;;;18.40;11.17;;;7.60;99.90;;;11.06;59.08;98006.31;4997052;28;20042;-57
2022/11/30 09:55:53;;;;;;;21.57;12.30;;;7.60;99.90;;;11.07;59.10;98009.81;4996502;28;20043;-58
2022/11/30 09:58:38;;;;;;;22.07;12.20;;;7.70;99.90;;;11.08;59.22;98004.31;4995868;28;20220;-58
2022/11/30 10:01:18;;;;;;;20.93;12.60;;;7.70;99.90;;;11.06;58.71;98000.97;4997394;28;20068;-58
2022/11/30 10:03:47;;;;;;;18.03;11.83;;;7.70;99.90;;;11.05;58.70;98002.00;4996674;28;20042;-58
2022/11/30 10:06:56;;;;;;;17.00;10.70;;;7.70;99.90;;;11.04;58.76;98000.31;4996814;28;20042;-59
2022/11/30 10:09:46;;;;;;;20.40;11.80;;;7.60;99.90;;;11.09;58.71;97998.03;4996363;28;20256;-58
2022/11/30 10:12:47;;;;;;;21.97;11.70;;;7.70;99.90;;;11.01;58.57;98004.13;4998339;28;20042;-58
2022/11/30 10:15:40;;;;;;;18.43;10.83;;;7.60;99.90;;;10.95;59.13;97999.41;4996687;28;20049;-58
2022/11/30 10:18:22;;;;;;;18.80;11.60;;;7.40;99.90;;;10.88;59.04;97998.34;4997021;28;20065;-58
2022/11/30 10:20:57;;;;;;;22.43;13.27;;;7.40;99.90;;;10.83;59.02;97998.81;4996857;28;20248;-58
2022/11/30 10:24:10;;;;;;;19.03;11.60;;;7.30;99.90;;;10.81;59.28;98002.63;4996314;28;20752;-58
2022/11/30 10:26:54;;;;;;;19.53;11.87;;;7.30;99.90;;;10.80;59.05;97998.31;4993663;28;20064;-57
2022/11/30 10:29:38;;;;;;;30.63;16.75;;;7.30;99.90;;;10.73;59.15;97995.41;4995963;28;20403;-58
2022/11/30 10:32:35;;;;;;;31.55;17.83;;;7.20;99.90;;;10.67;59.27;97993.34;4995865;28;20050;-58
2022/11/30 10:35:36;;;;;;;22.47;13.40;;;7.10;99.90;;;10.62;59.25;97984.97;4996383;28;20050;-59